Time;durP1;ratioP1;P1;durP2;ratioP2;P2;SDS_P1;SDS_P2;PMS_P1;PMS_P2;Temp;Humidity;BMP_temperature;BMP_pressure;BME280_temperature;BME280_humidity;BME280_pressure;Samples;Min_cycle;Max_cycle;Signal;HPM_P1;HPM_P2
2022/05/05 00:02:01;;;;;;;5.45;4.15;;;;;;;;;;5074271;28;20017;-48
2022/05/05 00:04:27;;;;;;;7.55;4.70;;;;;;;;;;5072646;28;20535;-48
2022/05/05 00:06:53;;;;;;;6.03;4.55;;;;;;;;;;5084843;28;20099;-46
2022/05/05 00:09:19;;;;;;;6.93;4.60;;;;;;;;;;5073281;28;20047;-52
2022/05/05 00:14:33;;;;;;;7.32;4.03;;;;;;;;;;5059006;28;20098;-47
2022/05/05 00:17:06;;;;;;;8.10;4.90;;;;;;;;;;5089955;28;20498;-49
2022/05/05 00:19:34;;;;;;;8.32;5.22;;;;;;;;;;5079646;28;20553;-48
2022/05/05 00:22:00;;;;;;;6.25;4.22;;;;;;;;;;5074237;28;20035;-48
2022/05/05 00:24:26;;;;;;;7.50;4.72;;;;;;;;;;5069902;28;20025;-50
2022/05/05 00:26:52;;;;;;;8.45;4.97;;;;;;;;;;5065893;28;20017;-49
2022/05/05 00:29:18;;;;;;;6.32;4.18;;;;;;;;;;5063897;28;20036;-52
2022/05/05 00:31:44;;;;;;;9.70;4.75;;;;;;;;;;5065651;28;20033;-48
2022/05/05 00:34:10;;;;;;;5.55;4.38;;;;;;;;;;5074170;28;20028;-49
2022/05/05 00:36:36;;;;;;;7.00;4.47;;;;;;;;;;5076609;28;20786;-49
2022/05/05 00:39:02;;;;;;;8.95;4.53;;;;;;;;;;5067624;28;20032;-48
2022/05/05 00:41:32;;;;;;;5.65;4.40;;;;;;;;;;5089636;28;20024;-47
2022/05/05 00:43:58;;;;;;;8.88;5.22;;;;;;;;;;5074376;28;20017;-48
2022/05/05 00:46:24;;;;;;;6.53;4.22;;;;;;;;;;5063192;28;20420;-47
2022/05/05 00:48:50;;;;;;;5.47;4.00;;;;;;;;;;5083402;28;20031;-46
2022/05/05 00:51:17;;;;;;;8.45;4.10;;;;;;;;;;5091199;28;20093;-47
2022/05/05 00:53:43;;;;;;;6.18;3.45;;;;;;;;;;5070021;28;20051;-49
2022/05/05 00:56:14;;;;;;;9.75;4.57;;;;;;;;;;5072041;28;20476;-50
2022/05/05 00:58:40;;;;;;;6.50;3.53;;;;;;;;;;5067547;28;20040;-48
2022/05/05 01:01:06;;;;;;;5.28;3.88;;;;;;;;;;5078006;28;20042;-49
2022/05/05 01:03:36;;;;;;;4.50;3.33;;;;;;;;;;5060078;28;20078;-48
2022/05/05 01:06:03;;;;;;;11.18;3.95;;;;;;;;;;5056132;28;20032;-46
2022/05/05 01:08:29;;;;;;;7.13;3.60;;;;;;;;;;5064349;28;20021;-46
2022/05/05 01:10:55;;;;;;;8.90;4.25;;;;;;;;;;5128908;22;20169;-88
2022/05/05 01:13:21;;;;;;;10.65;3.92;;;;;;;;;;4973157;28;20031;-88
2022/05/05 01:15:47;;;;;;;7.78;3.40;;;;;;;;;;4984911;28;20038;-88
2022/05/05 01:18:13;;;;;;;6.25;3.97;;;;;;;;;;5016474;23;20157;-52
2022/05/05 01:20:46;;;;;;;5.60;3.15;;;;;;;;;;5061471;28;20040;-52
2022/05/05 01:23:12;;;;;;;;;;;;;;;;;;5051528;28;20154;-51
2022/05/05 01:28:24;;;;;;;8.05;3.72;;;;;;;;;;5057359;28;20111;-55
2022/05/05 01:30:50;;;;;;;6.88;3.92;;;;;;;;;;5060520;28;20052;-52
2022/05/05 01:33:17;;;;;;;5.25;3.63;;;;;;;;;;5053134;28;20103;-50
2022/05/05 01:35:44;;;;;;;8.48;3.90;;;;;;;;;;5062641;28;20109;-52
2022/05/05 01:38:11;;;;;;;5.50;3.35;;;;;;;;;;5053970;28;20025;-52
2022/05/05 01:40:39;;;;;;;6.80;3.65;;;;;;;;;;5062818;28;20024;-53
2022/05/05 01:43:05;;;;;;;6.60;3.83;;;;;;;;;;5060886;28;20473;-55
2022/05/05 01:45:31;;;;;;;7.97;3.97;;;;;;;;;;5058098;28;20541;-51
2022/05/05 01:47:57;;;;;;;8.05;3.92;;;;;;;;;;5063381;28;20546;-51
2022/05/05 01:50:24;;;;;;;9.13;3.88;;;;;;;;;;5056353;28;20139;-51
2022/05/05 01:52:50;;;;;;;8.00;4.03;;;;;;;;;;5051224;28;20383;-52
2022/05/05 01:55:16;;;;;;;10.35;4.50;;;;;;;;;;5063874;28;20107;-51
2022/05/05 01:57:42;;;;;;;11.00;4.60;;;;;;;;;;5065789;28;20043;-50
2022/05/05 02:00:08;;;;;;;5.50;3.67;;;;;;;;;;5063645;28;20032;-50
2022/05/05 02:02:34;;;;;;;8.73;3.97;;;;;;;;;;5062902;28;20024;-50
2022/05/05 02:05:00;;;;;;;7.85;3.78;;;;;;;;;;5061002;28;20036;-53
2022/05/05 02:07:26;;;;;;;12.05;4.25;;;;;;;;;;5062752;28;20542;-53
2022/05/05 02:09:52;;;;;;;6.65;3.97;;;;;;;;;;5064402;28;20035;-52
2022/05/05 02:12:18;;;;;;;8.15;4.57;;;;;;;;;;5062574;28;20404;-50
2022/05/05 02:14:45;;;;;;;10.07;4.07;;;;;;;;;;5061514;28;20090;-50
2022/05/05 02:17:11;;;;;;;8.40;4.55;;;;;;;;;;5062927;28;20040;-50
2022/05/05 02:19:37;;;;;;;9.23;4.97;;;;;;;;;;5065750;28;20041;-51
2022/05/05 02:22:04;;;;;;;6.53;3.97;;;;;;;;;;5063666;28;20040;-50
2022/05/05 02:24:30;;;;;;;10.10;5.13;;;;;;;;;;5066973;28;20063;-50
2022/05/05 02:26:56;;;;;;;9.65;4.45;;;;;;;;;;5059628;28;20052;-50
2022/05/05 02:29:22;;;;;;;8.15;4.25;;;;;;;;;;5060348;28;20036;-50
2022/05/05 02:31:48;;;;;;;10.82;4.70;;;;;;;;;;5068552;28;20036;-50
2022/05/05 02:34:14;;;;;;;7.75;5.00;;;;;;;;;;5065284;28;20040;-50
2022/05/05 02:39:25;;;;;;;10.20;4.72;;;;;;;;;;5072741;28;20128;-51
2022/05/05 02:41:51;;;;;;;6.70;4.45;;;;;;;;;;5069937;28;20033;-50
2022/05/05 02:44:17;;;;;;;8.38;4.60;;;;;;;;;;5065187;28;20040;-50
2022/05/05 02:46:42;;;;;;;9.40;4.60;;;;;;;;;;5064104;28;20029;-50
2022/05/05 02:49:10;;;;;;;7.75;4.90;;;;;;;;;;5066223;28;20387;-50
2022/05/05 02:51:36;;;;;;;7.53;4.50;;;;;;;;;;5067358;28;20036;-50
2022/05/05 02:56:46;;;;;;;6.63;4.50;;;;;;;;;;5060890;28;20093;-50
2022/05/05 02:59:12;;;;;;;8.88;5.00;;;;;;;;;;5058895;28;20483;-50
2022/05/05 03:01:38;;;;;;;8.82;5.25;;;;;;;;;;5066952;28;20029;-49
2022/05/05 03:04:04;;;;;;;9.80;4.93;;;;;;;;;;5059919;28;20055;-50
2022/05/05 03:06:30;;;;;;;8.80;4.95;;;;;;;;;;5069075;28;20107;-50
2022/05/05 03:08:56;;;;;;;9.65;5.05;;;;;;;;;;5058016;28;20013;-50
2022/05/05 03:11:22;;;;;;;10.95;6.10;;;;;;;;;;5060990;28;20479;-49
2022/05/05 03:13:48;;;;;;;12.38;5.47;;;;;;;;;;5058338;28;20414;-50
2022/05/05 03:16:14;;;;;;;12.02;5.40;;;;;;;;;;5057212;28;20047;-50
2022/05/05 03:18:40;;;;;;;10.93;4.70;;;;;;;;;;5066827;28;20123;-50
2022/05/05 03:21:07;;;;;;;10.75;5.07;;;;;;;;;;5070943;28;20032;-50
2022/05/05 03:23:33;;;;;;;8.32;4.78;;;;;;;;;;5061411;28;20476;-50
2022/05/05 03:25:59;;;;;;;11.02;5.20;;;;;;;;;;5061248;28;20029;-50
2022/05/05 03:28:25;;;;;;;8.07;5.53;;;;;;;;;;5063110;28;20049;-50
2022/05/05 03:30:51;;;;;;;9.52;5.03;;;;;;;;;;5054953;28;20434;-50
2022/05/05 03:33:17;;;;;;;8.73;5.28;;;;;;;;;;5065603;28;20048;-53
2022/05/05 03:35:43;;;;;;;9.63;5.57;;;;;;;;;;5065011;28;20390;-50
2022/05/05 03:38:09;;;;;;;7.90;5.43;;;;;;;;;;5057978;28;20040;-51
2022/05/05 03:40:35;;;;;;;8.80;5.60;;;;;;;;;;5062248;28;20036;-50
2022/05/05 03:43:01;;;;;;;9.55;5.38;;;;;;;;;;5057981;28;20029;-49
2022/05/05 03:45:27;;;;;;;11.23;5.40;;;;;;;;;;5053946;28;20071;-50
2022/05/05 03:47:53;;;;;;;9.32;5.70;;;;;;;;;;5070587;28;20032;-50
2022/05/05 03:50:19;;;;;;;10.07;5.40;;;;;;;;;;5053207;28;20077;-49
2022/05/05 03:52:45;;;;;;;9.80;5.57;;;;;;;;;;5053738;28;20033;-51
2022/05/05 03:55:11;;;;;;;10.90;5.90;;;;;;;;;;5057454;28;20025;-49
2022/05/05 03:57:37;;;;;;;13.40;6.20;;;;;;;;;;5056893;28;20055;-50
2022/05/05 04:00:04;;;;;;;9.73;6.10;;;;;;;;;;5063792;28;20151;-51
2022/05/05 04:02:30;;;;;;;8.23;5.20;;;;;;;;;;5054822;28;20024;-49
2022/05/05 04:04:56;;;;;;;11.55;6.32;;;;;;;;;;5060175;28;20098;-50
2022/05/05 04:07:22;;;;;;;11.25;6.82;;;;;;;;;;5059573;28;20484;-50
2022/05/05 04:09:48;;;;;;;10.52;5.90;;;;;;;;;;5064959;28;20081;-51
2022/05/05 04:12:14;;;;;;;10.38;5.88;;;;;;;;;;5061298;28;20025;-50
2022/05/05 04:14:40;;;;;;;10.88;6.45;;;;;;;;;;5064307;28;20074;-50
2022/05/05 04:17:06;;;;;;;11.40;6.05;;;;;;;;;;5069182;28;20032;-50
2022/05/05 04:19:32;;;;;;;10.35;5.88;;;;;;;;;;5063870;28;20040;-51
2022/05/05 04:21:58;;;;;;;14.05;6.97;;;;;;;;;;5055555;28;20396;-50
2022/05/05 04:24:24;;;;;;;13.10;6.82;;;;;;;;;;5060692;28;20028;-50
2022/05/05 04:26:50;;;;;;;13.82;6.70;;;;;;;;;;5057709;28;20499;-51
2022/05/05 04:29:16;;;;;;;13.00;6.80;;;;;;;;;;5064406;28;20030;-51
2022/05/05 04:31:43;;;;;;;13.05;7.82;;;;;;;;;;5056286;28;20123;-51
2022/05/05 04:34:09;;;;;;;10.50;6.57;;;;;;;;;;5062831;28;20038;-51
2022/05/05 04:36:36;;;;;;;10.48;6.72;;;;;;;;;;5062489;28;20064;-50
2022/05/05 04:39:06;;;;;;;10.15;6.45;;;;;;;;;;5062702;28;20077;-50
2022/05/05 04:41:32;;;;;;;13.05;7.32;;;;;;;;;;5055897;28;20111;-50
2022/05/05 04:43:58;;;;;;;10.27;6.47;;;;;;;;;;5056712;28;20163;-51
2022/05/05 04:46:24;;;;;;;13.27;6.80;;;;;;;;;;5063932;28;20029;-50
2022/05/05 04:48:50;;;;;;;13.95;6.65;;;;;;;;;;5065165;28;20028;-52
2022/05/05 04:51:16;;;;;;;9.88;6.50;;;;;;;;;;5058612;28;20684;-51
2022/05/05 04:53:42;;;;;;;9.70;6.13;;;;;;;;;;5062212;28;20619;-52
2022/05/05 04:56:10;;;;;;;10.10;6.22;;;;;;;;;;5058034;28;20040;-51
2022/05/05 04:58:36;;;;;;;10.05;6.28;;;;;;;;;;5049556;28;20043;-50
2022/05/05 05:01:02;;;;;;;11.63;6.05;;;;;;;;;;5060922;28;20028;-50
2022/05/05 05:03:39;;;;;;;9.98;6.60;;;;;;;;;;5056773;28;20094;-50
2022/05/05 05:06:05;;;;;;;12.40;6.60;;;;;;;;;;5068603;28;20052;-51
2022/05/05 05:08:31;;;;;;;12.00;6.20;;;;;;;;;;5059899;28;20074;-51
2022/05/05 05:10:58;;;;;;;12.55;6.93;;;;;;;;;;5059188;28;20112;-51
2022/05/05 05:13:24;;;;;;;13.70;6.93;;;;;;;;;;5063243;28;20403;-52
2022/05/05 05:15:50;;;;;;;9.93;6.85;;;;;;;;;;5058563;28;20029;-52
2022/05/05 05:18:16;;;;;;;17.27;6.60;;;;;;;;;;5059381;28;20454;-50
2022/05/05 05:20:42;;;;;;;10.88;6.80;;;;;;;;;;5066051;28;20037;-51
2022/05/05 05:23:08;;;;;;;10.40;6.40;;;;;;;;;;5059308;28;20028;-52
2022/05/05 05:25:34;;;;;;;10.40;6.82;;;;;;;;;;5057770;28;20021;-51
2022/05/05 05:28:00;;;;;;;10.02;6.50;;;;;;;;;;5066704;28;20033;-51
2022/05/05 05:30:26;;;;;;;11.48;6.63;;;;;;;;;;5051052;28;20114;-51
2022/05/05 05:32:52;;;;;;;12.65;7.30;;;;;;;;;;5060166;28;20025;-51
2022/05/05 05:35:19;;;;;;;10.60;6.45;;;;;;;;;;5052419;28;20463;-51
2022/05/05 05:37:45;;;;;;;10.60;5.95;;;;;;;;;;5067118;28;20036;-52
2022/05/05 05:40:11;;;;;;;13.77;6.85;;;;;;;;;;5068012;28;20032;-50
2022/05/05 05:42:37;;;;;;;10.65;6.13;;;;;;;;;;5060795;28;20056;-52
2022/05/05 05:45:03;;;;;;;10.23;6.93;;;;;;;;;;5063199;28;20396;-51
2022/05/05 05:47:30;;;;;;;13.88;6.40;;;;;;;;;;5062274;28;20032;-50
2022/05/05 05:49:56;;;;;;;10.00;5.65;;;;;;;;;;5056708;28;20040;-52
2022/05/05 05:52:22;;;;;;;14.48;6.40;;;;;;;;;;5054580;28;20028;-51
2022/05/05 05:54:48;;;;;;;10.73;5.82;;;;;;;;;;5069388;28;20121;-50
2022/05/05 05:57:14;;;;;;;10.38;6.30;;;;;;;;;;5062048;28;20480;-50
2022/05/05 05:59:40;;;;;;;15.07;6.20;;;;;;;;;;5056395;28;20033;-51
2022/05/05 06:04:51;;;;;;;11.68;6.35;;;;;;;;;;5059797;28;20055;-51
2022/05/05 06:07:19;;;;;;;11.35;6.22;;;;;;;;;;5060340;28;20464;-52
2022/05/05 06:09:45;;;;;;;10.55;5.57;;;;;;;;;;5059157;28;20021;-52
2022/05/05 06:12:11;;;;;;;11.85;6.13;;;;;;;;;;5064844;28;20543;-53
2022/05/05 06:14:37;;;;;;;10.45;6.13;;;;;;;;;;5056081;28;20024;-53
2022/05/05 06:17:04;;;;;;;8.85;5.65;;;;;;;;;;5068894;28;20027;-53
2022/05/05 06:19:30;;;;;;;10.95;5.97;;;;;;;;;;5070500;28;20082;-51
2022/05/05 06:21:56;;;;;;;10.15;5.80;;;;;;;;;;5050951;28;20036;-52
2022/05/05 06:24:23;;;;;;;9.55;5.93;;;;;;;;;;5065687;28;20024;-51
2022/05/05 06:26:49;;;;;;;11.20;5.95;;;;;;;;;;5052478;28;20060;-50
2022/05/05 06:29:15;;;;;;;10.23;5.63;;;;;;;;;;5060525;28;20107;-51
2022/05/05 06:31:41;;;;;;;8.55;5.50;;;;;;;;;;5060682;28;20040;-52
2022/05/05 06:34:08;;;;;;;11.18;5.18;;;;;;;;;;5062894;28;20376;-50
2022/05/05 06:36:33;;;;;;;9.88;6.03;;;;;;;;;;5065577;28;20021;-51
2022/05/05 06:38:59;;;;;;;13.98;5.80;;;;;;;;;;5057990;28;20059;-50
2022/05/05 06:41:26;;;;;;;10.00;5.38;;;;;;;;;;5060885;28;20033;-53
2022/05/05 06:43:52;;;;;;;10.70;5.57;;;;;;;;;;5054667;28;20032;-51
2022/05/05 06:46:18;;;;;;;9.93;5.55;;;;;;;;;;5062463;28;20075;-51
2022/05/05 06:48:44;;;;;;;15.60;6.07;;;;;;;;;;5062668;28;20860;-51
2022/05/05 06:51:10;;;;;;;8.77;4.50;;;;;;;;;;5044002;28;20052;-54
2022/05/05 06:53:36;;;;;;;9.52;5.93;;;;;;;;;;5067635;28;20039;-51
2022/05/05 06:56:02;;;;;;;10.13;5.40;;;;;;;;;;5067409;28;20036;-52
2022/05/05 06:58:28;;;;;;;8.60;5.43;;;;;;;;;;5067032;28;20040;-52
2022/05/05 07:03:39;;;;;;;8.57;4.80;;;;;;;;;;5062352;28;20082;-52
2022/05/05 07:06:05;;;;;;;9.48;5.30;;;;;;;;;;5063189;28;20410;-52
2022/05/05 07:10:52;;;;;;;10.02;5.15;;;;;;;;;;5060943;28;20106;-51
2022/05/05 07:11:17;;;;;;;8.65;4.97;;;;;;;;;;5064891;28;20036;-55
2022/05/05 07:13:44;;;;;;;7.03;4.80;;;;;;;;;;5060803;28;20040;-53
2022/05/05 07:16:10;;;;;;;10.95;5.95;;;;;;;;;;5071641;28;20521;-52
2022/05/05 07:18:35;;;;;;;8.75;5.03;;;;;;;;;;5067716;28;20067;-51
2022/05/05 07:21:02;;;;;;;9.23;4.72;;;;;;;;;;5054669;28;20549;-50
2022/05/05 07:23:28;;;;;;;8.90;4.63;;;;;;;;;;5070352;28;20020;-52
2022/05/05 07:25:53;;;;;;;10.88;5.07;;;;;;;;;;5059094;28;20119;-52
2022/05/05 07:28:19;;;;;;;7.03;4.50;;;;;;;;;;5059399;28;20074;-50
2022/05/05 07:30:45;;;;;;;8.93;4.90;;;;;;;;;;5057695;28;20036;-51
2022/05/05 07:33:11;;;;;;;12.73;5.13;;;;;;;;;;5056297;28;20025;-51
2022/05/05 07:35:38;;;;;;;8.18;4.43;;;;;;;;;;5063633;28;20494;-53
2022/05/05 07:38:05;;;;;;;9.93;4.57;;;;;;;;;;5060121;28;20037;-54
2022/05/05 07:40:31;;;;;;;12.00;4.95;;;;;;;;;;5064390;28;20094;-51
2022/05/05 07:42:57;;;;;;;9.07;4.10;;;;;;;;;;5069500;28;20479;-51
2022/05/05 07:45:23;;;;;;;9.20;4.35;;;;;;;;;;5046004;28;20029;-51
2022/05/05 07:47:52;;;;;;;6.72;3.85;;;;;;;;;;5066380;28;20035;-51
2022/05/05 07:50:18;;;;;;;8.75;4.30;;;;;;;;;;5064435;28;20543;-51
2022/05/05 07:52:44;;;;;;;10.10;4.38;;;;;;;;;;5051956;28;20036;-52
2022/05/05 07:55:10;;;;;;;9.02;4.35;;;;;;;;;;5068580;28;20020;-50
2022/05/05 07:57:43;;;;;;;12.75;5.00;;;;;;;;;;5057312;28;20484;-50
2022/05/05 08:00:10;;;;;;;7.30;4.38;;;;;;;;;;5055626;28;20041;-50
2022/05/05 08:02:36;;;;;;;6.75;4.05;;;;;;;;;;5044930;28;20094;-50
2022/05/05 08:05:02;;;;;;;8.43;4.82;;;;;;;;;;5069409;28;20028;-51
2022/05/05 08:07:28;;;;;;;8.95;5.07;;;;;;;;;;5062669;28;20100;-50
2022/05/05 08:09:55;;;;;;;9.88;4.88;;;;;;;;;;5063744;28;20025;-51
2022/05/05 08:12:20;;;;;;;13.65;5.00;;;;;;;;;;5052937;28;20017;-51
2022/05/05 08:14:46;;;;;;;9.68;5.45;;;;;;;;;;5055706;28;20024;-51
2022/05/05 08:17:12;;;;;;;7.63;4.55;;;;;;;;;;5055271;28;20044;-51
2022/05/05 08:19:38;;;;;;;10.50;4.75;;;;;;;;;;5055850;28;20558;-52
2022/05/05 08:22:04;;;;;;;8.60;4.93;;;;;;;;;;5061436;28;20587;-54
2022/05/05 08:30:02;;;;;;;8.88;4.90;;;;;;;;;;5058045;28;20040;-51
2022/05/05 08:32:28;;;;;;;9.15;4.53;;;;;;;;;;5054331;28;20041;-50
2022/05/05 08:34:54;;;;;;;11.55;4.97;;;;;;;;;;5059654;28;20033;-52
2022/05/05 08:37:20;;;;;;;9.02;4.28;;;;;;;;;;5059700;28;20380;-53
2022/05/05 08:39:46;;;;;;;9.73;4.30;;;;;;;;;;5046170;28;20441;-52
2022/05/05 08:42:12;;;;;;;12.73;4.60;;;;;;;;;;5071739;28;20395;-54
2022/05/05 08:44:38;;;;;;;9.43;4.90;;;;;;;;;;5071279;28;20221;-53
2022/05/05 08:47:06;;;;;;;10.82;4.60;;;;;;;;;;5065261;28;20035;-51
2022/05/05 08:49:32;;;;;;;9.88;3.67;;;;;;;;;;5050767;28;20051;-52
2022/05/05 08:51:58;;;;;;;8.68;3.50;;;;;;;;;;5061769;28;20471;-54
2022/05/05 08:54:25;;;;;;;7.07;3.38;;;;;;;;;;5071318;28;20032;-50
2022/05/05 08:56:52;;;;;;;6.32;3.90;;;;;;;;;;5071417;28;20391;-52
2022/05/05 08:59:18;;;;;;;8.52;4.05;;;;;;;;;;5071670;28;20025;-51
2022/05/05 09:01:45;;;;;;;10.20;3.50;;;;;;;;;;5071171;28;20121;-50
2022/05/05 09:04:11;;;;;;;6.25;3.30;;;;;;;;;;5070411;28;20021;-52
2022/05/05 09:06:41;;;;;;;6.63;3.33;;;;;;;;;;5066299;28;20035;-51
2022/05/05 09:09:11;;;;;;;5.18;3.60;;;;;;;;;;5071520;28;20388;-50
2022/05/05 09:11:37;;;;;;;10.32;3.72;;;;;;;;;;5075757;28;20368;-52
2022/05/05 09:14:07;;;;;;;5.40;3.15;;;;;;;;;;5070513;28;20107;-51
2022/05/05 09:16:33;;;;;;;8.60;3.47;;;;;;;;;;5069644;28;20549;-51
2022/05/05 09:19:02;;;;;;;9.30;3.70;;;;;;;;;;5070950;28;20048;-51
2022/05/05 09:21:41;;;;;;;7.32;3.55;;;;;;;;;;5070371;28;20033;-52
2022/05/05 09:26:56;;;;;;;7.40;2.78;;;;;;;;;;5071383;28;20035;-54
2022/05/05 09:29:22;;;;;;;6.03;2.85;;;;;;;;;;5071169;28;20536;-53
2022/05/05 09:31:50;;;;;;;6.25;3.38;;;;;;;;;;5065953;28;20679;-54
2022/05/05 09:34:19;;;;;;;7.50;3.38;;;;;;;;;;5071352;28;20131;-51
2022/05/05 09:36:47;;;;;;;9.15;3.38;;;;;;;;;;5070844;28;20058;-55
2022/05/05 09:39:13;;;;;;;8.80;3.22;;;;;;;;;;5057618;28;20158;-51
2022/05/05 09:41:46;;;;;;;6.18;2.97;;;;;;;;;;5070662;28;20482;-54
2022/05/05 09:44:13;;;;;;;8.50;2.92;;;;;;;;;;5069595;28;20038;-53
2022/05/05 09:46:39;;;;;;;5.05;2.40;;;;;;;;;;5071100;28;20032;-55
2022/05/05 09:49:07;;;;;;;5.82;2.53;;;;;;;;;;5071123;28;20012;-55
2022/05/05 09:51:35;;;;;;;7.78;3.17;;;;;;;;;;5070489;28;20032;-52
2022/05/05 09:59:40;;;;;;;5.97;3.17;;;;;;;;;;5070590;28;20042;-54
2022/05/05 10:02:26;;;;;;;5.83;3.57;;;;;;;;;;5070620;28;20025;-55
2022/05/05 10:04:55;;;;;;;7.97;3.72;;;;;;;;;;5070772;28;20512;-55
2022/05/05 10:07:21;;;;;;;6.93;3.10;;;;;;;;;;5070074;28;20024;-55
2022/05/05 10:09:49;;;;;;;5.47;2.92;;;;;;;;;;5070464;28;20029;-52
2022/05/05 10:12:15;;;;;;;7.32;3.80;;;;;;;;;;5065288;28;20040;-53
2022/05/05 10:14:41;;;;;;;4.10;2.55;;;;;;;;;;5066252;28;20029;-55
2022/05/05 10:17:08;;;;;;;7.63;2.97;;;;;;;;;;5070587;28;20500;-54
2022/05/05 10:19:36;;;;;;;10.10;3.05;;;;;;;;;;5070384;28;20496;-52
2022/05/05 10:22:06;;;;;;;7.30;3.17;;;;;;;;;;5070216;28;20475;-52
2022/05/05 10:24:34;;;;;;;10.90;3.40;;;;;;;;;;5070540;28;20107;-52
2022/05/05 10:27:00;;;;;;;7.97;2.75;;;;;;;;;;5056393;28;20025;-51
2022/05/05 10:29:32;;;;;;;6.88;3.15;;;;;;;;;;5056669;28;20107;-53
2022/05/05 10:32:09;;;;;;;5.68;3.30;;;;;;;;;;5068317;28;20129;-55
2022/05/05 10:34:37;;;;;;;5.38;3.33;;;;;;;;;;5073767;28;20075;-55
2022/05/05 10:37:13;;;;;;;7.63;2.90;;;;;;;;;;5074672;28;20056;-54
2022/05/05 10:39:47;;;;;;;4.95;2.30;;;;;;;;;;5074385;28;20403;-54
2022/05/05 10:42:19;;;;;;;10.20;3.10;;;;;;;;;;5068622;28;20033;-55
2022/05/05 10:45:05;;;;;;;6.22;3.00;;;;;;;;;;5066924;28;20040;-54
2022/05/05 10:47:49;;;;;;;10.02;3.42;;;;;;;;;;5068713;28;20025;-53
2022/05/05 10:50:28;;;;;;;11.15;3.20;;;;;;;;;;5073493;28;20027;-55
2022/05/05 10:52:54;;;;;;;5.38;3.22;;;;;;;;;;5074175;28;20021;-56
2022/05/05 10:55:26;;;;;;;7.25;3.28;;;;;;;;;;5068136;28;20024;-56
2022/05/05 10:57:52;;;;;;;7.30;3.10;;;;;;;;;;5055856;28;20024;-53
2022/05/05 11:00:18;;;;;;;8.55;2.70;;;;;;;;;;5066060;28;20040;-54
2022/05/05 11:03:02;;;;;;;8.35;3.30;;;;;;;;;;5058866;28;20037;-55
2022/05/05 11:05:29;;;;;;;6.13;2.90;;;;;;;;;;5063496;28;20024;-53
2022/05/05 11:08:24;;;;;;;6.63;3.60;;;;;;;;;;5073768;28;20096;-56
2022/05/05 11:13:40;;;;;;;7.22;3.60;;;;;;;;;;5063316;28;20036;-53
2022/05/05 11:22:08;;;;;;;3.55;2.70;;;;;;;;;;5064008;28;20051;-55
2022/05/05 11:24:35;;;;;;;8.23;2.88;;;;;;;;;;5073140;28;20606;-54
2022/05/05 11:27:01;;;;;;;10.13;3.47;;;;;;;;;;5073450;28;20028;-52
2022/05/05 11:29:33;;;;;;;5.05;2.90;;;;;;;;;;5073095;28;20035;-52
2022/05/05 11:32:00;;;;;;;6.05;3.00;;;;;;;;;;5068423;28;20044;-55
2022/05/05 11:34:33;;;;;;;8.50;3.00;;;;;;;;;;5069138;28;20510;-56
2022/05/05 11:37:00;;;;;;;6.93;3.33;;;;;;;;;;5068037;28;20506;-55
2022/05/05 11:39:26;;;;;;;9.32;3.40;;;;;;;;;;5072844;28;20064;-56
2022/05/05 11:41:59;;;;;;;6.07;2.65;;;;;;;;;;5074242;28;20537;-55
2022/05/05 11:44:27;;;;;;;8.40;3.80;;;;;;;;;;5071151;28;20017;-53
2022/05/05 11:46:53;;;;;;;3.60;2.65;;;;;;;;;;5073292;28;20029;-55
2022/05/05 11:49:19;;;;;;;5.55;2.53;;;;;;;;;;5073046;28;20100;-55
2022/05/05 11:51:45;;;;;;;4.85;2.65;;;;;;;;;;5068583;28;20400;-55
2022/05/05 11:54:14;;;;;;;4.80;2.47;;;;;;;;;;5068886;28;20114;-56
2022/05/05 11:56:49;;;;;;;6.82;3.10;;;;;;;;;;5072556;28;20025;-56
2022/05/05 12:02:11;;;;;;;7.57;2.72;;;;;;;;;;5060648;28;20048;-55
2022/05/05 12:05:03;;;;;;;15.25;3.28;;;;;;;;;;5072483;28;20058;-55
2022/05/05 12:07:29;;;;;;;7.00;2.80;;;;;;;;;;5051456;28;20045;-55
2022/05/05 12:09:57;;;;;;;6.53;2.25;;;;;;;;;;5064152;28;20104;-53
2022/05/05 12:12:24;;;;;;;7.93;2.70;;;;;;;;;;5072259;28;20020;-55
2022/05/05 12:14:52;;;;;;;6.18;2.63;;;;;;;;;;5054373;28;20513;-56
2022/05/05 12:17:21;;;;;;;3.75;2.20;;;;;;;;;;5072492;28;20020;-52
2022/05/05 12:19:59;;;;;;;5.40;2.25;;;;;;;;;;5071761;28;20076;-55
2022/05/05 12:22:32;;;;;;;5.45;2.42;;;;;;;;;;5072210;28;20032;-54
2022/05/05 12:24:58;;;;;;;;;;;;;;;;;;5073118;28;20024;-55
2022/05/05 12:27:25;;;;;;;3.05;1.70;;;;;;;;;;5064260;28;20284;-55
2022/05/05 12:29:51;;;;;;;7.25;2.80;;;;;;;;;;5071932;28;20024;-56
2022/05/05 12:32:18;;;;;;;4.85;1.98;;;;;;;;;;5070427;28;20036;-54
2022/05/05 12:34:44;;;;;;;5.63;2.38;;;;;;;;;;5071828;28;20543;-55
2022/05/05 12:37:20;;;;;;;4.95;2.50;;;;;;;;;;5071928;28;20115;-56
2022/05/05 12:40:01;;;;;;;3.97;2.15;;;;;;;;;;5059579;28;20538;-55
2022/05/05 12:42:46;;;;;;;4.97;2.80;;;;;;;;;;5064832;28;20480;-55
2022/05/05 12:45:18;;;;;;;7.05;2.35;;;;;;;;;;5063647;28;20040;-55
2022/05/05 12:47:46;;;;;;;4.88;1.98;;;;;;;;;;5058352;28;20122;-55
2022/05/05 12:50:31;;;;;;;7.35;1.90;;;;;;;;;;5062299;28;20029;-55
2022/05/05 13:01:23;;;;;;;3.30;1.55;;;;;;;;;;5071450;28;20032;-56
2022/05/05 13:03:49;;;;;;;3.83;1.58;;;;;;;;;;5065566;28;20027;-55
2022/05/05 13:06:15;;;;;;;2.67;1.20;;;;;;;;;;5067726;28;20038;-56
2022/05/05 13:08:41;;;;;;;4.63;1.80;;;;;;;;;;5071279;28;20384;-53
2022/05/05 13:11:07;;;;;;;7.60;1.98;;;;;;;;;;5067507;28;20043;-55
2022/05/05 13:13:33;;;;;;;5.95;1.70;;;;;;;;;;5068222;28;20032;-55
2022/05/05 13:15:59;;;;;;;4.03;1.30;;;;;;;;;;5060464;28;20020;-56
2022/05/05 13:18:25;;;;;;;6.50;1.25;;;;;;;;;;5069304;28;20045;-52
2022/05/05 13:20:51;;;;;;;4.38;1.67;;;;;;;;;;5058811;28;21659;-54
2022/05/05 13:23:17;;;;;;;4.93;1.90;;;;;;;;;;5061065;28;20036;-54
2022/05/05 13:25:43;;;;;;;8.55;2.58;;;;;;;;;;5062882;28;20021;-52
2022/05/05 13:28:09;;;;;;;5.50;2.17;;;;;;;;;;5070964;28;20023;-51
2022/05/05 13:30:35;;;;;;;7.18;2.10;;;;;;;;;;5057397;28;20491;-55
2022/05/05 13:33:00;;;;;;;3.95;1.95;;;;;;;;;;5054246;28;20024;-55
2022/05/05 13:35:26;;;;;;;3.90;2.15;;;;;;;;;;5060725;28;20171;-54
2022/05/05 13:37:53;;;;;;;6.28;2.08;;;;;;;;;;5055605;28;20045;-55
2022/05/05 13:40:19;;;;;;;6.88;1.77;;;;;;;;;;5063679;28;20093;-53
2022/05/05 13:42:45;;;;;;;5.00;1.90;;;;;;;;;;5062525;28;20029;-56
2022/05/05 13:45:11;;;;;;;3.80;1.75;;;;;;;;;;5065626;28;20027;-54
2022/05/05 13:47:37;;;;;;;6.35;1.90;;;;;;;;;;5064198;28;20183;-55
2022/05/05 13:50:03;;;;;;;2.90;1.58;;;;;;;;;;5055056;28;20130;-56
2022/05/05 13:52:29;;;;;;;4.07;1.95;;;;;;;;;;5064371;28;20086;-54
2022/05/05 13:54:56;;;;;;;2.92;1.30;;;;;;;;;;5061596;28;20025;-55
2022/05/05 13:57:22;;;;;;;5.78;1.58;;;;;;;;;;5061970;28;20028;-54
2022/05/05 13:59:48;;;;;;;5.97;1.92;;;;;;;;;;5060997;28;20022;-56
2022/05/05 14:02:14;;;;;;;3.22;1.80;;;;;;;;;;5054004;28;20040;-55
2022/05/05 14:04:40;;;;;;;3.85;1.80;;;;;;;;;;5066747;28;20036;-55
2022/05/05 14:07:06;;;;;;;3.50;1.40;;;;;;;;;;5064308;28;20028;-54
2022/05/05 14:12:17;;;;;;;2.90;1.58;;;;;;;;;;5061583;28;20067;-52
2022/05/05 14:14:44;;;;;;;2.95;1.67;;;;;;;;;;5065163;28;20024;-56
2022/05/05 14:17:11;;;;;;;2.95;1.52;;;;;;;;;;5064030;28;20074;-55
2022/05/05 14:19:39;;;;;;;3.13;1.15;;;;;;;;;;5066146;28;20048;-56
2022/05/05 14:22:05;;;;;;;5.57;1.40;;;;;;;;;;5069524;28;20418;-55
2022/05/05 14:24:31;;;;;;;5.15;1.25;;;;;;;;;;5069739;28;20032;-55
2022/05/05 14:26:57;;;;;;;2.38;1.25;;;;;;;;;;5068451;28;20048;-55
2022/05/05 14:29:23;;;;;;;4.50;1.27;;;;;;;;;;5067207;28;20036;-54
2022/05/05 14:31:49;;;;;;;4.95;1.33;;;;;;;;;;5063477;28;20120;-53
2022/05/05 14:34:15;;;;;;;5.07;1.60;;;;;;;;;;5059619;28;20139;-54
2022/05/05 14:36:41;;;;;;;2.92;0.98;;;;;;;;;;5058874;28;20037;-55
2022/05/05 14:39:07;;;;;;;4.90;1.25;;;;;;;;;;5061311;28;20051;-56
2022/05/05 14:41:33;;;;;;;4.65;1.23;;;;;;;;;;5063549;28;20036;-56
2022/05/05 14:44:01;;;;;;;2.22;0.80;;;;;;;;;;5068294;28;20029;-56
2022/05/05 14:46:27;;;;;;;5.30;1.05;;;;;;;;;;5067361;28;20037;-55
2022/05/05 14:48:53;;;;;;;4.15;1.15;;;;;;;;;;5063174;28;20021;-55
2022/05/05 14:51:19;;;;;;;5.93;1.30;;;;;;;;;;5063841;28;20105;-56
2022/05/05 14:53:45;;;;;;;2.95;1.00;;;;;;;;;;5064064;28;20135;-55
2022/05/05 14:56:12;;;;;;;2.03;1.00;;;;;;;;;;5066877;28;20040;-55
2022/05/05 14:58:38;;;;;;;2.42;0.80;;;;;;;;;;5066419;28;20073;-55
2022/05/05 15:01:04;;;;;;;2.90;1.00;;;;;;;;;;5069800;28;20031;-55
2022/05/05 15:03:31;;;;;;;3.03;1.30;;;;;;;;;;5067639;28;20047;-55
2022/05/05 15:05:59;;;;;;;2.35;1.15;;;;;;;;;;5066645;28;20017;-55
2022/05/05 15:08:25;;;;;;;4.00;1.27;;;;;;;;;;5069861;28;20017;-55
2022/05/05 15:10:51;;;;;;;5.53;1.67;;;;;;;;;;5073499;28;20483;-54
2022/05/05 15:13:17;;;;;;;5.60;1.40;;;;;;;;;;5070169;28;20095;-55
2022/05/05 15:15:44;;;;;;;3.75;1.30;;;;;;;;;;5061291;28;20037;-55
2022/05/05 15:18:10;;;;;;;2.58;1.48;;;;;;;;;;5067410;28;20053;-55
2022/05/05 15:20:36;;;;;;;3.90;1.20;;;;;;;;;;5060608;28;20036;-55
2022/05/05 15:23:02;;;;;;;2.85;1.45;;;;;;;;;;5066293;28;20118;-54
2022/05/05 15:25:29;;;;;;;5.93;0.90;;;;;;;;;;5069043;28;20774;-54
2022/05/05 15:27:55;;;;;;;3.80;1.33;;;;;;;;;;5063589;28;20377;-52
2022/05/05 15:30:21;;;;;;;4.88;1.45;;;;;;;;;;5060841;28;20039;-54
2022/05/05 15:32:47;;;;;;;3.45;1.00;;;;;;;;;;5066519;28;20024;-54
2022/05/05 15:35:13;;;;;;;4.00;1.15;;;;;;;;;;5065018;28;20361;-53